Time;durP1;ratioP1;P1;durP2;ratioP2;P2;SDS_P1;SDS_P2;PMS_P1;PMS_P2;Temp;Humidity;BMP_temperature;BMP_pressure;BME280_temperature;BME280_humidity;BME280_pressure;Samples;Min_cycle;Max_cycle;Signal;HPM_P1;HPM_P2
2021/12/11 00:00:12;;;;;;;435.98;193.35;;;;;;;5.81;96.06;98963.25;343658;28;2070;-69
2021/12/11 00:00:34;;;;;;;441.95;194.10;;;;;;;5.83;95.88;98961.47;342940;28;1284;-69
2021/12/11 00:00:49;;;;;;;440.20;189.93;;;;;;;5.83;96.32;98966.66;343638;28;1847;-69
2021/12/11 00:01:02;;;;;;;437.95;183.27;;;;;;;5.81;96.18;98973.66;343957;28;1771;-69
2021/12/11 00:01:42;;;;;;;436.40;180.25;;;;;;;5.75;96.12;98974.69;344791;28;1869;-69
2021/12/11 00:01:56;;;;;;;435.00;181.80;;;;;;;5.72;96.63;98973.94;340693;29;1524;-69
2021/12/11 00:02:15;;;;;;;435.38;187.20;;;;;;;5.72;96.43;98979.13;343871;28;916;-69
2021/12/11 00:02:29;;;;;;;434.73;185.45;;;;;;;5.74;96.47;98977.34;344050;28;992;-69
2021/12/11 00:02:39;;;;;;;433.33;188.73;;;;;;;5.75;96.39;98973.84;346242;28;1592;-69
2021/12/11 00:03:00;;;;;;;432.05;187.27;;;;;;;5.78;96.48;98979.78;345527;28;1349;-69
2021/12/11 00:03:14;;;;;;;434.42;180.93;;;;;;;5.80;96.50;98972.81;345472;28;2041;-69
2021/12/11 00:03:27;;;;;;;436.88;186.13;;;;;;;5.78;96.06;98978.94;343798;28;2001;-69
2021/12/11 00:03:41;;;;;;;437.50;180.65;;;;;;;5.74;96.41;98982.53;345227;28;1015;-69
2021/12/11 00:03:58;;;;;;;439.77;185.32;;;;;;;5.65;96.75;98981.91;345197;28;960;-69
2021/12/11 00:04:13;;;;;;;440.52;184.18;;;;;;;5.67;96.65;98982.72;343792;28;1093;-69
2021/12/11 00:04:29;;;;;;;439.23;173.15;;;;;;;5.68;96.47;98984.41;342497;28;1696;-69
2021/12/11 00:04:41;;;;;;;436.00;173.13;;;;;;;5.67;96.44;98982.72;343605;28;2016;-69
2021/12/11 00:04:56;;;;;;;434.54;178.48;;;;;;;5.67;96.51;98979.28;342262;28;1105;-69
2021/12/11 00:05:06;;;;;;;436.25;183.73;;;;;;;5.66;96.69;98981.00;346411;28;1153;-69
2021/12/11 00:05:17;;;;;;;439.10;188.50;;;;;;;5.68;96.18;98989.59;347286;28;1739;-69
2021/12/11 00:05:28;;;;;;;442.03;192.53;;;;;;;5.64;96.40;98985.41;347826;28;1562;-69
2021/12/11 00:05:39;;;;;;;441.63;194.32;;;;;;;5.65;96.55;98983.66;344925;28;1012;-69
2021/12/11 00:05:56;;;;;;;441.13;191.50;;;;;;;5.62;96.25;98984.63;347696;28;1726;-69
2021/12/11 00:06:13;;;;;;;440.85;182.32;;;;;;;5.63;96.63;98986.31;342618;28;1064;-69
2021/12/11 00:06:26;;;;;;;440.60;182.43;;;;;;;5.61;96.97;98982.09;343934;28;1245;-69
2021/12/11 00:06:44;;;;;;;440.92;189.95;;;;;;;5.62;96.47;98976.00;343909;28;925;-69
2021/12/11 00:06:55;;;;;;;439.60;190.10;;;;;;;5.64;96.88;98977.63;345017;28;1837;-69
2021/12/11 00:07:08;;;;;;;438.00;187.45;;;;;;;5.67;96.62;98977.53;345968;28;1448;-69
2021/12/11 00:07:18;;;;;;;435.73;184.55;;;;;;;5.66;96.30;98983.63;345638;28;1873;-69
2021/12/11 00:07:29;;;;;;;437.55;187.25;;;;;;;5.66;96.77;98980.16;343549;28;2025;-69
2021/12/11 00:07:40;;;;;;;438.47;190.80;;;;;;;5.65;96.39;98981.06;345117;28;1782;-69
2021/12/11 00:07:50;;;;;;;438.17;190.07;;;;;;;5.67;96.94;98985.31;344938;28;2587;-69
2021/12/11 00:08:00;;;;;;;436.47;191.60;;;;;;;5.67;96.49;98982.72;344425;28;1791;-69
2021/12/11 00:08:13;;;;;;;432.77;186.15;;;;;;;5.65;96.44;98981.91;344988;28;2167;-69
2021/12/11 00:08:26;;;;;;;432.40;185.50;;;;;;;5.66;96.48;98975.81;345169;28;1404;-69
2021/12/11 00:08:36;;;;;;;435.55;183.88;;;;;;;5.66;96.19;98981.00;343899;28;1395;-69
2021/12/11 00:08:48;;;;;;;436.65;179.98;;;;;;;5.68;96.01;98981.81;343715;28;2035;-70
2021/12/11 00:09:01;;;;;;;436.63;176.52;;;;;;;5.72;96.33;98981.72;342908;28;1428;-70
2021/12/11 00:09:14;;;;;;;433.73;171.65;;;;;;;5.71;96.18;98978.28;346335;28;2104;-69
2021/12/11 00:09:28;;;;;;;433.48;173.60;;;;;;;5.73;95.98;98986.88;346845;28;1860;-69
2021/12/11 00:09:42;;;;;;;434.23;173.45;;;;;;;5.75;95.97;98985.06;346410;28;1464;-69
2021/12/11 00:10:02;;;;;;;434.63;174.77;;;;;;;5.77;96.28;98985.88;346410;28;1080;-69
2021/12/11 00:10:43;;;;;;;437.52;189.65;;;;;;;5.82;95.80;98990.94;345315;28;1860;-70
2021/12/11 00:11:00;;;;;;;434.50;211.68;;;;;;;5.85;95.33;98983.03;343936;28;1264;-70
2021/12/11 00:11:35;;;;;;;434.35;213.52;;;;;;;5.86;95.79;98998.56;345178;28;947;-70
2021/12/11 00:12:16;;;;;;;427.74;208.48;;;;;;;5.87;95.58;98994.22;344092;28;1699;-69
2021/12/11 00:12:48;;;;;;;430.15;200.50;;;;;;;5.88;95.34;99001.97;346375;28;1940;-69
2021/12/11 00:13:00;;;;;;;433.77;191.82;;;;;;;5.85;95.23;99001.22;347269;28;1599;-69
2021/12/11 00:13:15;;;;;;;433.10;190.25;;;;;;;5.85;95.46;99002.06;346396;28;2126;-69
2021/12/11 00:13:28;;;;;;;434.77;191.15;;;;;;;5.87;95.45;99008.06;343874;28;1058;-69
2021/12/11 00:13:40;;;;;;;438.42;198.05;;;;;;;5.88;95.48;99006.31;345104;28;948;-69
2021/12/11 00:13:55;;;;;;;435.63;189.45;;;;;;;5.87;95.35;98996.81;343593;28;2294;-69
2021/12/11 00:14:07;;;;;;;428.77;171.45;;;;;;;5.88;95.22;99004.56;347724;28;2181;-69
2021/12/11 00:14:17;;;;;;;429.88;173.72;;;;;;;5.88;95.07;99006.31;344981;28;1856;-69
2021/12/11 00:14:28;;;;;;;433.23;183.97;;;;;;;5.87;95.26;99002.03;342743;28;2174;-69
2021/12/11 00:14:41;;;;;;;432.67;183.32;;;;;;;5.89;95.09;99011.50;343498;28;2431;-69
2021/12/11 00:14:54;;;;;;;432.77;183.45;;;;;;;5.89;95.11;99003.72;341978;28;1464;-69
2021/12/11 00:15:19;;;;;;;430.20;180.82;;;;;;;5.91;94.75;99008.84;341720;28;1551;-69
2021/12/11 00:15:32;;;;;;;424.33;184.77;;;;;;;5.89;94.94;99005.44;343609;28;2094;-69
2021/12/11 00:15:44;;;;;;;424.00;195.15;;;;;;;5.88;95.35;99012.34;345080;28;2016;-69
2021/12/11 00:15:55;;;;;;;423.33;201.93;;;;;;;5.90;95.06;99009.75;347776;28;1282;-69
2021/12/11 00:16:05;;;;;;;425.83;205.60;;;;;;;5.90;94.98;99009.75;343750;28;1661;-70
2021/12/11 00:16:17;;;;;;;426.65;211.93;;;;;;;5.90;94.87;99009.75;343747;28;1997;-70
2021/12/11 00:16:29;;;;;;;425.77;209.73;;;;;;;5.88;95.14;99004.56;343745;28;2141;-70
2021/12/11 00:16:39;;;;;;;426.08;208.73;;;;;;;5.89;95.01;99013.25;344137;28;1299;-70
2021/12/11 00:16:50;;;;;;;424.77;205.73;;;;;;;5.90;95.05;99007.16;344723;28;2179;-70
2021/12/11 00:17:00;;;;;;;425.75;207.05;;;;;;;5.91;94.77;99011.44;344997;28;1690;-70
2021/12/11 00:17:11;;;;;;;425.40;206.63;;;;;;;5.91;95.26;99011.44;343681;28;1331;-70
2021/12/11 00:17:27;;;;;;;426.10;209.43;;;;;;;5.90;95.26;99014.94;348104;28;2321;-70
2021/12/11 00:17:38;;;;;;;425.58;212.27;;;;;;;5.89;94.68;99019.28;346404;28;2649;-70
2021/12/11 00:17:48;;;;;;;426.07;211.63;;;;;;;5.89;95.12;99018.44;345843;28;1832;-70
2021/12/11 00:18:08;;;;;;;427.23;211.43;;;;;;;5.88;95.06;99014.09;343815;28;867;-70
2021/12/11 00:18:23;;;;;;;424.73;207.10;;;;;;;5.89;94.83;99015.84;341572;28;976;-70
2021/12/11 00:18:33;;;;;;;423.25;203.48;;;;;;;5.87;95.17;99015.00;342127;28;2656;-69
2021/12/11 00:18:44;;;;;;;424.25;207.63;;;;;;;5.86;95.02;99019.34;342565;28;2199;-69
2021/12/11 00:19:00;;;;;;;421.48;205.38;;;;;;;5.88;95.15;99019.31;346077;28;1699;-69
2021/12/11 00:19:18;;;;;;;419.10;199.05;;;;;;;5.88;94.70;99017.56;345169;28;1165;-69
2021/12/11 00:19:31;;;;;;;419.02;192.55;;;;;;;5.86;94.93;99014.16;343389;28;1166;-69
2021/12/11 00:19:41;;;;;;;420.83;195.23;;;;;;;5.88;95.06;99027.09;342408;28;1257;-69
2021/12/11 00:19:52;;;;;;;423.23;199.97;;;;;;;5.88;94.85;99021.91;343190;28;2234;-69
2021/12/11 00:20:07;;;;;;;424.98;204.43;;;;;;;5.89;95.11;99018.44;343102;28;861;-69
2021/12/11 00:20:21;;;;;;;422.00;201.32;;;;;;;5.88;94.88;99022.75;344386;28;2089;-69
2021/12/11 00:20:33;;;;;;;420.83;202.73;;;;;;;5.89;95.03;99018.44;343498;28;1997;-69
2021/12/11 00:20:53;;;;;;;422.00;208.07;;;;;;;5.89;94.98;99021.03;345105;28;2123;-69
2021/12/11 00:21:09;;;;;;;423.75;209.98;;;;;;;5.88;94.94;99019.31;344280;28;2021;-69
2021/12/11 00:21:21;;;;;;;427.45;211.63;;;;;;;5.89;94.92;99023.63;344411;28;2115;-70
2021/12/11 00:21:32;;;;;;;429.30;210.35;;;;;;;5.89;94.93;99018.44;343160;28;1864;-69
2021/12/11 00:21:43;;;;;;;427.42;208.30;;;;;;;5.89;94.79;99021.88;343149;28;1810;-69
2021/12/11 00:21:55;;;;;;;427.10;206.65;;;;;;;5.88;95.18;99021.91;342262;28;2090;-69
2021/12/11 00:22:13;;;;;;;426.35;209.18;;;;;;;5.86;95.10;99015.91;343654;28;1241;-69
2021/12/11 00:22:25;;;;;;;426.15;210.30;;;;;;;5.88;95.00;99024.50;345217;28;904;-69
2021/12/11 00:22:39;;;;;;;426.10;210.18;;;;;;;5.90;95.01;99020.13;344158;28;1964;-70
2021/12/11 00:22:50;;;;;;;427.98;208.55;;;;;;;5.89;94.92;99021.03;343422;28;2140;-69
2021/12/11 00:23:01;;;;;;;432.63;210.50;;;;;;;5.88;94.99;99024.50;343778;28;2018;-69
2021/12/11 00:23:12;;;;;;;434.15;204.45;;;;;;;5.87;95.18;99023.63;343870;28;920;-69
2021/12/11 00:23:31;;;;;;;435.47;199.73;;;;;;;5.85;95.55;99019.41;344978;28;2556;-69
2021/12/11 00:24:06;;;;;;;434.52;191.55;;;;;;;5.84;95.86;99020.28;342436;28;839;-69
2021/12/11 00:24:19;;;;;;;440.70;211.18;;;;;;;5.86;95.98;99026.28;344525;28;2103;-69
2021/12/11 00:24:31;;;;;;;438.00;198.60;;;;;;;5.89;95.83;99024.47;344932;28;1353;-69
2021/12/11 00:24:42;;;;;;;436.05;189.57;;;;;;;5.92;95.61;99020.94;344741;28;1819;-69
2021/12/11 00:24:52;;;;;;;432.70;190.70;;;;;;;5.93;95.98;99026.09;343787;28;1366;-69
2021/12/11 00:25:09;;;;;;;428.17;198.13;;;;;;;5.94;95.58;99032.13;343851;28;2231;-69
2021/12/11 00:25:19;;;;;;;419.83;186.73;;;;;;;5.95;95.30;99029.47;346018;28;1745;-69
2021/12/11 00:25:30;;;;;;;418.75;184.30;;;;;;;5.96;95.89;99027.72;346442;28;2093;-69
2021/12/11 00:25:42;;;;;;;420.30;194.23;;;;;;;5.97;95.49;99029.44;345129;28;912;-69
2021/12/11 00:25:52;;;;;;;418.20;196.52;;;;;;;5.98;95.49;99028.53;345136;28;948;-69
2021/12/11 00:26:04;;;;;;;418.00;196.50;;;;;;;5.99;95.27;99032.84;344222;28;1787;-69
2021/12/11 00:26:14;;;;;;;416.26;194.48;;;;;;;6.00;95.33;99034.53;344956;28;2147;-69
2021/12/11 00:26:50;;;;;;;419.50;198.37;;;;;;;5.98;95.18;99038.94;342838;28;1643;-69
2021/12/11 00:27:06;;;;;;;417.23;196.35;;;;;;;5.95;95.29;99039.03;341847;28;2045;-69
2021/12/11 00:27:21;;;;;;;419.13;195.10;;;;;;;5.96;94.93;99038.13;343275;28;1282;-69
2021/12/11 00:27:31;;;;;;;424.05;199.75;;;;;;;5.96;94.76;99032.94;344259;28;1812;-69
2021/12/11 00:27:43;;;;;;;425.20;198.85;;;;;;;5.95;94.84;99039.03;344425;28;1611;-69
2021/12/11 00:28:03;;;;;;;425.95;195.48;;;;;;;5.95;94.87;99044.22;343241;28;1109;-70
2021/12/11 00:28:13;;;;;;;426.15;196.10;;;;;;;5.95;95.10;99050.25;343685;28;2122;-71
2021/12/11 00:28:24;;;;;;;428.43;199.37;;;;;;;5.95;95.04;99044.22;343870;28;934;-69
2021/12/11 00:28:48;;;;;;;431.17;205.00;;;;;;;5.95;94.96;99044.22;343397;28;2008;-69
2021/12/11 00:28:58;;;;;;;436.08;213.35;;;;;;;5.95;95.25;99049.41;343638;28;1956;-69
2021/12/11 00:29:09;;;;;;;435.07;212.20;;;;;;;5.95;94.98;99044.22;343825;28;1093;-69
2021/12/11 00:29:21;;;;;;;435.27;216.40;;;;;;;5.95;95.17;99052.84;346033;28;2038;-69
2021/12/11 00:29:32;;;;;;;433.33;213.57;;;;;;;5.95;95.02;99057.19;346049;28;1862;-69
2021/12/11 00:29:43;;;;;;;432.70;208.67;;;;;;;5.94;94.83;99058.94;346297;28;1841;-69
2021/12/11 00:29:53;;;;;;;434.65;209.82;;;;;;;5.94;94.96;99052.91;346508;28;1071;-69
2021/12/11 00:30:05;;;;;;;434.60;211.02;;;;;;;5.94;95.13;99058.94;342650;28;1276;-69
2021/12/11 00:30:24;;;;;;;436.67;212.43;;;;;;;5.94;95.16;99052.91;343984;28;2346;-69
2021/12/11 00:30:37;;;;;;;427.70;193.65;;;;;;;5.94;94.63;99055.50;346438;28;1605;-69
2021/12/11 00:30:47;;;;;;;415.83;179.90;;;;;;;5.94;94.70;99058.94;343675;28;1471;-69
2021/12/11 00:30:58;;;;;;;413.97;178.20;;;;;;;5.94;95.02;99064.13;343785;28;1637;-69
2021/12/11 00:31:08;;;;;;;410.83;168.90;;;;;;;5.95;94.78;99054.59;344141;28;1117;-69
2021/12/11 00:31:19;;;;;;;410.50;168.97;;;;;;;5.94;94.70;99058.09;345165;28;2049;-69
2021/12/11 00:31:29;;;;;;;410.63;170.48;;;;;;;5.93;94.97;99061.59;345427;28;1600;-69
2021/12/11 00:31:45;;;;;;;410.33;170.40;;;;;;;5.93;95.07;99062.44;343543;28;1216;-69
2021/12/11 00:32:01;;;;;;;411.48;165.27;;;;;;;5.92;94.83;99060.75;343808;28;1019;-69
2021/12/11 00:32:17;;;;;;;409.50;165.52;;;;;;;5.89;94.53;99062.56;342537;28;991;-69
2021/12/11 00:32:30;;;;;;;410.30;164.65;;;;;;;5.88;94.16;99058.25;343741;28;1643;-69
2021/12/11 00:32:40;;;;;;;413.05;167.10;;;;;;;5.85;94.68;99053.16;346604;28;935;-69
2021/12/11 00:33:00;;;;;;;410.97;168.17;;;;;;;5.87;94.56;99066.94;343444;28;1867;-69
2021/12/11 00:33:22;;;;;;;410.00;165.90;;;;;;;5.85;94.61;99055.75;342540;28;924;-69
2021/12/11 00:33:32;;;;;;;412.17;165.75;;;;;;;5.84;94.55;99054.03;344516;28;1659;-69
2021/12/11 00:33:43;;;;;;;411.90;167.70;;;;;;;5.83;94.37;99060.13;343510;28;1954;-69
2021/12/11 00:33:54;;;;;;;411.65;168.65;;;;;;;5.85;94.72;99047.97;342758;28;1238;-69
2021/12/11 00:34:04;;;;;;;410.45;164.73;;;;;;;5.85;94.39;99060.94;343386;28;1834;-69
2021/12/11 00:34:15;;;;;;;410.53;167.57;;;;;;;5.83;94.61;99060.13;341898;28;1797;-69
2021/12/11 00:34:26;;;;;;;410.33;167.70;;;;;;;5.83;94.65;99060.13;345035;28;1354;-69
2021/12/11 00:34:38;;;;;;;410.03;169.07;;;;;;;5.80;94.82;99055.03;345285;28;1042;-69
2021/12/11 00:34:49;;;;;;;407.95;165.57;;;;;;;5.79;94.75;99051.59;346831;28;1852;-69
2021/12/11 00:35:13;;;;;;;408.10;165.70;;;;;;;5.81;94.69;99051.53;343714;28;1886;-69
2021/12/11 00:35:24;;;;;;;409.52;162.65;;;;;;;5.80;94.60;99060.22;342595;28;948;-69
2021/12/11 00:35:35;;;;;;;409.40;162.73;;;;;;;5.79;94.77;99061.13;343602;28;2083;-69
2021/12/11 00:35:45;;;;;;;411.40;164.88;;;;;;;5.80;94.86;99060.22;343237;28;2183;-69
2021/12/11 00:35:55;;;;;;;410.88;162.65;;;;;;;5.78;94.62;99052.47;343243;28;1030;-69
2021/12/11 00:36:15;;;;;;;410.43;160.13;;;;;;;5.79;94.68;99053.34;344948;28;1964;-69
2021/12/11 00:36:32;;;;;;;408.73;157.88;;;;;;;5.79;94.95;99054.19;345191;28;935;-69
2021/12/11 00:36:51;;;;;;;409.80;163.68;;;;;;;5.78;94.54;99051.63;341498;28;1238;-69
2021/12/11 00:37:04;;;;;;;412.77;166.27;;;;;;;5.79;94.80;99053.34;344930;28;1760;-69
2021/12/11 00:37:15;;;;;;;413.95;167.73;;;;;;;5.79;94.79;99048.13;343457;28;1324;-69
2021/12/11 00:37:26;;;;;;;412.75;167.60;;;;;;;5.80;94.54;99057.63;342547;28;955;-69
2021/12/11 00:37:37;;;;;;;413.05;165.10;;;;;;;5.80;94.99;99055.03;341126;28;1919;-69
2021/12/11 00:37:48;;;;;;;414.25;167.75;;;;;;;5.77;94.51;99053.38;343698;28;1682;-69
2021/12/11 00:38:03;;;;;;;411.77;165.10;;;;;;;5.75;94.53;99052.56;343906;28;1068;-69
2021/12/11 00:38:16;;;;;;;410.08;162.80;;;;;;;5.71;94.78;99050.97;342431;28;2062;-69
2021/12/11 00:38:32;;;;;;;411.17;161.35;;;;;;;5.72;95.02;99049.22;346421;28;1322;-69
2021/12/11 00:38:47;;;;;;;412.85;162.60;;;;;;;5.72;95.11;99052.66;344993;28;1782;-69
2021/12/11 00:39:04;;;;;;;413.80;165.23;;;;;;;5.71;94.65;99050.13;344575;28;967;-69
2021/12/11 00:39:16;;;;;;;414.73;172.52;;;;;;;5.72;94.90;99047.47;343874;28;1741;-69
2021/12/11 00:39:27;;;;;;;416.92;177.32;;;;;;;5.68;94.68;99045.88;343661;28;1553;-69
2021/12/11 00:39:55;;;;;;;417.08;174.57;;;;;;;5.66;94.75;99043.31;344648;28;2237;-69
2021/12/11 00:40:05;;;;;;;413.98;168.43;;;;;;;5.66;95.18;99056.28;344318;28;1979;-69
2021/12/11 00:40:21;;;;;;;411.88;166.63;;;;;;;5.65;95.25;99043.34;344373;28;2129;-69
2021/12/11 00:40:32;;;;;;;409.20;160.40;;;;;;;5.64;95.14;99039.06;344849;28;2033;-69
2021/12/11 00:40:44;;;;;;;409.02;160.10;;;;;;;5.65;95.21;99041.63;347220;28;1992;-69
2021/12/11 00:40:54;;;;;;;410.45;163.85;;;;;;;5.68;95.10;99056.25;346466;28;1431;-69
2021/12/11 00:41:07;;;;;;;411.03;167.27;;;;;;;5.69;95.25;99045.81;345162;28;1747;-69
2021/12/11 00:41:19;;;;;;;416.42;171.35;;;;;;;5.69;95.38;99044.97;344388;28;2128;-69
2021/12/11 00:41:32;;;;;;;417.50;173.02;;;;;;;5.72;95.11;99047.47;344019;28;2196;-69
2021/12/11 00:41:49;;;;;;;419.80;178.90;;;;;;;5.73;95.13;99045.72;344854;28;1529;-69
2021/12/11 00:42:01;;;;;;;417.88;177.57;;;;;;;5.76;95.04;99043.88;343891;28;2145;-70
2021/12/11 00:42:12;;;;;;;415.08;174.18;;;;;;;5.77;94.96;99042.16;345418;28;1475;-69
2021/12/11 00:42:30;;;;;;;414.85;170.20;;;;;;;5.76;94.78;99045.63;345123;28;1509;-69
2021/12/11 00:42:47;;;;;;;413.85;167.73;;;;;;;5.76;95.15;99045.63;343858;28;1731;-69
2021/12/11 00:43:02;;;;;;;410.55;166.13;;;;;;;5.76;95.04;99049.09;345136;28;932;-69
2021/12/11 00:43:17;;;;;;;407.08;159.10;;;;;;;5.78;94.83;99047.28;345099;28;1275;-69
2021/12/11 00:43:29;;;;;;;407.50;160.52;;;;;;;5.77;94.91;99042.16;343950;28;2286;-69
2021/12/11 00:43:40;;;;;;;407.20;161.13;;;;;;;5.78;94.95;99046.44;343802;28;1137;-69
2021/12/11 00:43:51;;;;;;;409.02;164.32;;;;;;;5.79;94.67;99041.19;344385;28;2126;-69
2021/12/11 00:44:02;;;;;;;405.97;159.40;;;;;;;5.79;94.86;99041.19;343593;28;2238;-69
2021/12/11 00:44:12;;;;;;;405.52;156.90;;;;;;;5.81;94.78;99036.81;343855;28;1365;-69
2021/12/11 00:44:52;;;;;;;403.33;153.10;;;;;;;5.81;94.55;99036.81;345412;28;2055;-69
2021/12/11 00:45:12;;;;;;;405.55;157.85;;;;;;;5.79;94.97;99036.00;345033;28;2106;-69
2021/12/11 00:45:29;;;;;;;405.60;158.60;;;;;;;5.78;94.50;99036.06;346051;28;2121;-69
2021/12/11 00:45:39;;;;;;;406.52;163.45;;;;;;;5.78;94.54;99036.06;346307;28;1123;-69
2021/12/11 00:45:50;;;;;;;406.80;165.20;;;;;;;5.77;94.65;99030.00;344990;28;2109;-69
2021/12/11 00:46:00;;;;;;;408.50;163.98;;;;;;;5.80;94.67;99036.84;347687;28;2129;-69
2021/12/11 00:46:13;;;;;;;408.43;161.27;;;;;;;5.79;94.72;99030.81;345264;28;1714;-69
2021/12/11 00:46:26;;;;;;;407.98;158.38;;;;;;;5.80;94.67;99034.25;344964;28;2560;-69
2021/12/11 00:46:37;;;;;;;407.02;159.07;;;;;;;5.79;94.85;99037.75;345300;28;1514;-69
2021/12/11 00:46:47;;;;;;;404.53;157.03;;;;;;;5.79;95.23;99029.97;344608;28;2007;-69
2021/12/11 00:47:15;;;;;;;399.92;152.52;;;;;;;5.75;95.14;99036.16;346497;28;1097;-69
2021/12/11 00:47:30;;;;;;;403.23;159.13;;;;;;;5.75;95.15;99025.75;346452;28;942;-69
2021/12/11 00:48:05;;;;;;;406.42;160.23;;;;;;;5.75;95.49;99026.63;344980;28;1361;-69
2021/12/11 00:48:18;;;;;;;401.13;152.10;;;;;;;5.77;95.26;99029.16;346116;28;2134;-69
2021/12/11 00:48:28;;;;;;;403.35;155.48;;;;;;;5.77;95.51;99030.00;344876;28;1225;-69
2021/12/11 00:48:39;;;;;;;406.40;159.15;;;;;;;5.78;95.65;99030.88;343528;28;2209;-69
2021/12/11 00:48:49;;;;;;;406.50;160.13;;;;;;;5.78;95.33;99031.72;345496;28;1912;-69
2021/12/11 00:49:07;;;;;;;404.90;159.97;;;;;;;5.78;95.51;99025.66;346082;28;1349;-69
2021/12/11 00:49:18;;;;;;;407.40;160.75;;;;;;;5.79;95.23;99032.56;344488;28;1782;-69
2021/12/11 00:49:29;;;;;;;405.63;154.23;;;;;;;5.78;95.41;99030.88;342509;28;1061;-69
2021/12/11 00:49:58;;;;;;;402.17;151.68;;;;;;;5.78;95.36;99030.88;344651;28;1844;-69
2021/12/11 00:50:10;;;;;;;403.82;151.20;;;;;;;5.77;95.12;99031.75;344814;28;2099;-69
2021/12/11 00:50:25;;;;;;;403.95;150.18;;;;;;;5.78;95.53;99028.25;345425;28;2097;-69
2021/12/11 00:50:50;;;;;;;402.70;150.85;;;;;;;5.76;95.73;99030.06;345745;28;2158;-69
2021/12/11 00:51:11;;;;;;;402.83;153.52;;;;;;;5.73;95.95;99030.16;345190;28;1861;-69
2021/12/11 00:51:22;;;;;;;407.63;160.88;;;;;;;5.71;95.78;99025.00;345025;28;2150;-69
2021/12/11 00:51:32;;;;;;;408.45;160.20;;;;;;;5.69;95.83;99027.66;343718;28;2158;-69
2021/12/11 00:51:56;;;;;;;407.42;160.38;;;;;;;5.71;96.08;99024.16;344075;28;1476;-69
2021/12/11 00:52:06;;;;;;;405.42;156.57;;;;;;;5.73;96.02;99032.75;346711;28;1806;-69
2021/12/11 00:52:17;;;;;;;406.35;155.35;;;;;;;5.73;95.89;99035.34;346000;28;2046;-69
2021/12/11 00:52:31;;;;;;;407.63;157.90;;;;;;;5.76;95.65;99027.47;344987;28;974;-69
2021/12/11 00:52:45;;;;;;;408.25;159.88;;;;;;;5.77;95.68;99034.34;345153;28;952;-69
2021/12/11 00:53:07;;;;;;;407.73;160.38;;;;;;;5.75;95.52;99033.56;344810;28;968;-69
2021/12/11 00:53:30;;;;;;;409.88;166.57;;;;;;;5.74;96.07;99034.44;345244;28;1945;-69
2021/12/11 00:53:47;;;;;;;409.98;162.40;;;;;;;5.75;95.94;99029.22;345009;28;1337;-69
2021/12/11 00:53:58;;;;;;;410.25;158.50;;;;;;;5.76;95.95;99037.84;346768;28;869;-69
2021/12/11 00:54:08;;;;;;;410.23;160.90;;;;;;;5.76;95.97;99028.31;346379;28;1134;-69
2021/12/11 00:54:19;;;;;;;408.17;161.07;;;;;;;5.77;96.02;99035.19;346284;28;1940;-69
2021/12/11 00:54:29;;;;;;;407.90;160.20;;;;;;;5.77;95.59;99030.00;345061;28;1188;-69
2021/12/11 00:54:43;;;;;;;408.73;160.70;;;;;;;5.80;95.74;99031.66;343909;28;2196;-69
2021/12/11 00:54:54;;;;;;;409.83;161.27;;;;;;;5.82;96.02;99027.28;343681;28;1600;-69
2021/12/11 00:55:08;;;;;;;410.08;164.80;;;;;;;5.81;95.60;99026.44;342359;28;1909;-69
2021/12/11 00:55:22;;;;;;;409.90;166.98;;;;;;;5.82;95.55;99027.28;342419;28;1559;-69
2021/12/11 00:55:36;;;;;;;409.90;164.70;;;;;;;5.78;95.62;99025.66;341292;28;2308;-69
2021/12/11 00:55:50;;;;;;;413.73;167.02;;;;;;;5.79;96.02;99037.75;342312;28;2131;-69
2021/12/11 00:56:04;;;;;;;417.17;170.93;;;;;;;5.78;95.67;99026.53;346502;28;976;-69
2021/12/11 00:56:18;;;;;;;413.40;163.50;;;;;;;5.78;95.88;99025.66;342399;28;1449;-69
2021/12/11 00:56:35;;;;;;;408.75;160.50;;;;;;;5.79;95.63;99029.97;342253;28;1366;-69
2021/12/11 00:56:46;;;;;;;406.23;159.30;;;;;;;5.82;95.81;99024.69;345642;28;2221;-69
2021/12/11 00:56:57;;;;;;;405.80;158.13;;;;;;;5.82;95.57;99027.28;345703;28;995;-69
2021/12/11 00:57:12;;;;;;;404.63;157.10;;;;;;;5.83;95.64;99021.19;346765;28;1711;-69
2021/12/11 00:57:23;;;;;;;404.48;156.43;;;;;;;5.83;95.58;99027.22;344619;28;1640;-69
2021/12/11 00:57:33;;;;;;;404.73;155.70;;;;;;;5.82;95.76;99017.75;342616;28;1761;-69
2021/12/11 00:57:49;;;;;;;405.05;155.10;;;;;;;5.84;95.81;99015.09;342422;28;931;-69
2021/12/11 00:58:05;;;;;;;405.70;159.43;;;;;;;5.86;95.96;99014.16;343474;28;1116;-69
2021/12/11 00:58:41;;;;;;;401.77;159.52;;;;;;;5.89;96.13;99021.03;342521;28;873;-69
2021/12/11 00:58:55;;;;;;;406.55;162.82;;;;;;;5.87;95.59;99015.84;345015;28;2064;-69
2021/12/11 00:59:09;;;;;;;406.42;160.50;;;;;;;5.88;95.95;99016.69;342767;28;1535;-69
2021/12/11 00:59:20;;;;;;;408.50;164.90;;;;;;;5.89;95.79;99013.25;344067;28;2318;-69
2021/12/11 00:59:30;;;;;;;409.25;166.10;;;;;;;5.91;95.80;99019.22;346642;28;888;-69
2021/12/11 00:59:41;;;;;;;409.07;164.50;;;;;;;5.89;95.74;99015.84;344977;28;2290;-69
2021/12/11 01:00:08;;;;;;;407.10;162.57;;;;;;;5.86;95.46;99015.91;344850;28;2152;-69
2021/12/11 01:00:21;;;;;;;403.00;156.10;;;;;;;5.83;95.81;99014.25;341227;28;1828;-69
2021/12/11 01:00:35;;;;;;;402.88;156.85;;;;;;;5.82;95.91;99020.34;343712;28;2121;-69
2021/12/11 01:01:10;;;;;;;404.45;159.90;;;;;;;5.84;96.07;99015.94;341168;29;937;-69
2021/12/11 01:01:27;;;;;;;410.42;167.75;;;;;;;5.84;95.94;99020.28;343660;28;2045;-69
2021/12/11 01:01:49;;;;;;;406.38;162.68;;;;;;;5.79;95.65;99015.25;341476;28;1832;-69
2021/12/11 01:02:01;;;;;;;409.90;167.13;;;;;;;5.79;95.87;99006.59;345064;28;926;-69
2021/12/11 01:02:11;;;;;;;410.52;166.68;;;;;;;5.79;95.99;99022.19;346373;28;2027;-69
2021/12/11 01:02:22;;;;;;;409.97;163.23;;;;;;;5.77;96.03;99014.44;344255;28;1647;-69
2021/12/11 01:02:32;;;;;;;408.33;160.95;;;;;;;5.76;96.05;99017.06;343614;28;1576;-69
2021/12/11 01:02:43;;;;;;;408.20;161.07;;;;;;;5.74;96.14;99014.53;342244;28;2553;-69
2021/12/11 01:02:54;;;;;;;408.73;159.77;;;;;;;5.72;95.94;99011.13;342308;28;1974;-69
2021/12/11 01:03:04;;;;;;;409.08;160.75;;;;;;;5.74;96.35;99018.88;343943;28;2182;-69
2021/12/11 01:03:19;;;;;;;409.48;165.10;;;;;;;5.76;96.12;99012.75;345056;28;1363;-69
2021/12/11 01:03:54;;;;;;;409.33;166.55;;;;;;;5.77;96.48;99011.00;343734;28;1398;-69
2021/12/11 01:04:07;;;;;;;410.75;165.65;;;;;;;5.81;95.94;99010.00;342597;28;2040;-69
2021/12/11 01:04:20;;;;;;;410.52;162.52;;;;;;;5.82;96.01;99011.69;344947;28;2006;-69
2021/12/11 01:04:33;;;;;;;408.25;157.68;;;;;;;5.82;96.42;99011.69;345158;28;987;-69
2021/12/11 01:04:43;;;;;;;408.45;159.43;;;;;;;5.82;96.26;99014.28;345172;28;1101;-69
2021/12/11 01:04:54;;;;;;;410.93;164.60;;;;;;;5.83;96.05;99013.41;345823;28;2120;-69
2021/12/11 01:05:05;;;;;;;415.42;169.10;;;;;;;5.85;96.05;99011.59;344936;28;2135;-69
2021/12/11 01:05:16;;;;;;;415.13;174.27;;;;;;;5.84;96.22;99009.91;345058;28;1323;-69
2021/12/11 01:05:33;;;;;;;414.85;172.60;;;;;;;5.84;96.24;99015.09;342649;28;2274;-69
2021/12/11 01:05:45;;;;;;;412.45;165.25;;;;;;;5.84;95.89;99005.56;342397;28;900;-69
2021/12/11 01:05:57;;;;;;;411.67;161.35;;;;;;;5.87;95.97;99009.81;343475;28;1447;-69
2021/12/11 01:06:13;;;;;;;412.60;163.85;;;;;;;5.87;96.25;99015.00;344492;28;1118;-69
2021/12/11 01:06:35;;;;;;;414.42;166.13;;;;;;;5.88;95.98;99004.56;344642;28;1962;-69
2021/12/11 01:06:52;;;;;;;416.73;170.82;;;;;;;5.90;95.99;99008.00;344267;28;2018;-69
2021/12/11 01:07:04;;;;;;;413.10;165.40;;;;;;;5.88;95.70;99011.50;343606;28;2135;-69
2021/12/11 01:07:19;;;;;;;415.65;166.52;;;;;;;5.85;95.64;99009.00;344740;28;1480;-69
2021/12/11 01:07:32;;;;;;;419.02;176.77;;;;;;;5.84;95.93;99005.56;345423;28;2243;-69
2021/12/11 01:07:43;;;;;;;417.77;174.95;;;;;;;5.83;95.69;99001.25;344560;28;955;-69